sensor_id;sensor_type;location;lat;lon;timestamp;temperature;humidity
8736;DHT22;4404;49.308;12.178;2024-02-04T00:00:59;11.80;92.20
8736;DHT22;4404;49.308;12.178;2024-02-04T00:03:01;11.90;92.20
8736;DHT22;4404;49.308;12.178;2024-02-04T00:05:03;11.90;92.20
8736;DHT22;4404;49.308;12.178;2024-02-04T00:07:05;11.90;92.30
8736;DHT22;4404;49.308;12.178;2024-02-04T00:09:07;11.90;92.20
8736;DHT22;4404;49.308;12.178;2024-02-04T00:11:09;11.90;92.20
8736;DHT22;4404;49.308;12.178;2024-02-04T00:13:12;11.90;92.20
8736;DHT22;4404;49.308;12.178;2024-02-04T00:15:14;11.80;92.40
8736;DHT22;4404;49.308;12.178;2024-02-04T00:17:16;11.90;92.30
8736;DHT22;4404;49.308;12.178;2024-02-04T00:19:18;11.90;92.10
8736;DHT22;4404;49.308;12.178;2024-02-04T00:21:20;12.00;92.40
8736;DHT22;4404;49.308;12.178;2024-02-04T00:23:23;11.90;92.70
8736;DHT22;4404;49.308;12.178;2024-02-04T00:25:25;11.90;92.30
8736;DHT22;4404;49.308;12.178;2024-02-04T00:27:29;12.00;92.30
8736;DHT22;4404;49.308;12.178;2024-02-04T00:29:31;11.90;92.40
8736;DHT22;4404;49.308;12.178;2024-02-04T00:31:33;11.90;92.50
8736;DHT22;4404;49.308;12.178;2024-02-04T00:33:35;11.90;92.40
8736;DHT22;4404;49.308;12.178;2024-02-04T00:35:37;12.00;92.40
8736;DHT22;4404;49.308;12.178;2024-02-04T00:37:39;12.00;94.70
8736;DHT22;4404;49.308;12.178;2024-02-04T00:39:41;11.90;92.30
8736;DHT22;4404;49.308;12.178;2024-02-04T00:41:43;12.00;92.70
8736;DHT22;4404;49.308;12.178;2024-02-04T00:43:45;11.90;92.20
8736;DHT22;4404;49.308;12.178;2024-02-04T00:45:47;11.90;92.20
8736;DHT22;4404;49.308;12.178;2024-02-04T00:47:49;11.90;92.10
8736;DHT22;4404;49.308;12.178;2024-02-04T00:49:51;11.90;92.30
8736;DHT22;4404;49.308;12.178;2024-02-04T00:51:52;11.90;92.30
8736;DHT22;4404;49.308;12.178;2024-02-04T00:53:54;12.00;92.30
8736;DHT22;4404;49.308;12.178;2024-02-04T00:55:57;11.90;92.20
8736;DHT22;4404;49.308;12.178;2024-02-04T00:57:59;12.00;92.30
8736;DHT22;4404;49.308;12.178;2024-02-04T01:00:03;12.00;92.40
8736;DHT22;4404;49.308;12.178;2024-02-04T01:04:08;11.90;92.00
8736;DHT22;4404;49.308;12.178;2024-02-04T01:06:09;12.00;92.30
8736;DHT22;4404;49.308;12.178;2024-02-04T01:08:11;11.90;92.20
8736;DHT22;4404;49.308;12.178;2024-02-04T01:10:13;11.90;92.20
8736;DHT22;4404;49.308;12.178;2024-02-04T01:12:16;11.90;92.10
8736;DHT22;4404;49.308;12.178;2024-02-04T01:14:18;12.00;92.40
8736;DHT22;4404;49.308;12.178;2024-02-04T01:16:19;12.00;92.40
8736;DHT22;4404;49.308;12.178;2024-02-04T01:18:21;12.00;92.20
8736;DHT22;4404;49.308;12.178;2024-02-04T01:20:23;12.00;92.30
8736;DHT22;4404;49.308;12.178;2024-02-04T01:22:25;11.90;92.20
8736;DHT22;4404;49.308;12.178;2024-02-04T01:24:27;12.00;92.40
8736;DHT22;4404;49.308;12.178;2024-02-04T01:26:28;11.90;92.10
8736;DHT22;4404;49.308;12.178;2024-02-04T01:28:32;12.00;92.40
8736;DHT22;4404;49.308;12.178;2024-02-04T01:30:34;12.00;92.40
8736;DHT22;4404;49.308;12.178;2024-02-04T01:32:35;12.00;92.20
8736;DHT22;4404;49.308;12.178;2024-02-04T01:34:37;12.00;92.40
8736;DHT22;4404;49.308;12.178;2024-02-04T01:36:40;12.00;92.20
8736;DHT22;4404;49.308;12.178;2024-02-04T01:38:41;11.90;92.20
8736;DHT22;4404;49.308;12.178;2024-02-04T01:40:43;11.90;92.50
8736;DHT22;4404;49.308;12.178;2024-02-04T01:42:46;12.00;92.40
8736;DHT22;4404;49.308;12.178;2024-02-04T01:44:50;12.00;92.10
8736;DHT22;4404;49.308;12.178;2024-02-04T01:46:52;12.00;92.40
8736;DHT22;4404;49.308;12.178;2024-02-04T01:48:55;12.00;92.30
8736;DHT22;4404;49.308;12.178;2024-02-04T01:50:59;12.00;92.30
8736;DHT22;4404;49.308;12.178;2024-02-04T01:53:03;11.90;92.40
8736;DHT22;4404;49.308;12.178;2024-02-04T01:55:05;12.00;92.70
8736;DHT22;4404;49.308;12.178;2024-02-04T01:57:07;12.00;92.40
8736;DHT22;4404;49.308;12.178;2024-02-04T01:59:11;12.00;92.50
8736;DHT22;4404;49.308;12.178;2024-02-04T02:01:15;12.30;92.30
8736;DHT22;4404;49.308;12.178;2024-02-04T02:03:16;12.00;92.40
8736;DHT22;4404;49.308;12.178;2024-02-04T02:05:19;12.00;92.20
8736;DHT22;4404;49.308;12.178;2024-02-04T02:07:20;11.90;92.30
8736;DHT22;4404;49.308;12.178;2024-02-04T02:11:35;12.00;92.10
8736;DHT22;4404;49.308;12.178;2024-02-04T02:13:40;12.00;92.40
8736;DHT22;4404;49.308;12.178;2024-02-04T02:15:47;12.00;92.10
8736;DHT22;4404;49.308;12.178;2024-02-04T02:17:57;12.00;92.30
8736;DHT22;4404;49.308;12.178;2024-02-04T02:20:05;11.80;94.20
8736;DHT22;4404;49.308;12.178;2024-02-04T02:22:19;11.90;92.40
8736;DHT22;4404;49.308;12.178;2024-02-04T02:24:36;12.00;92.50
8736;DHT22;4404;49.308;12.178;2024-02-04T02:26:40;11.90;92.10
8736;DHT22;4404;49.308;12.178;2024-02-04T02:28:41;12.00;92.40
8736;DHT22;4404;49.308;12.178;2024-02-04T02:32:46;11.90;92.00
8736;DHT22;4404;49.308;12.178;2024-02-04T02:34:50;12.00;92.40
8736;DHT22;4404;49.308;12.178;2024-02-04T02:36:56;12.00;92.10
8736;DHT22;4404;49.308;12.178;2024-02-04T02:39:08;12.00;92.30
8736;DHT22;4404;49.308;12.178;2024-02-04T02:41:16;12.00;92.30
8736;DHT22;4404;49.308;12.178;2024-02-04T02:43:18;12.00;92.30
8736;DHT22;4404;49.308;12.178;2024-02-04T02:45:21;12.00;92.30
8736;DHT22;4404;49.308;12.178;2024-02-04T02:47:26;12.00;92.30
8736;DHT22;4404;49.308;12.178;2024-02-04T02:49:30;12.00;92.40
8736;DHT22;4404;49.308;12.178;2024-02-04T02:51:32;12.00;92.20
8736;DHT22;4404;49.308;12.178;2024-02-04T02:53:34;12.00;92.40
8736;DHT22;4404;49.308;12.178;2024-02-04T02:55:36;11.90;92.30
8736;DHT22;4404;49.308;12.178;2024-02-04T02:57:40;12.10;92.20
8736;DHT22;4404;49.308;12.178;2024-02-04T02:59:41;11.90;92.30
8736;DHT22;4404;49.308;12.178;2024-02-04T03:01:43;12.00;92.30
8736;DHT22;4404;49.308;12.178;2024-02-04T03:03:45;12.00;92.30
8736;DHT22;4404;49.308;12.178;2024-02-04T03:05:47;12.00;92.70
8736;DHT22;4404;49.308;12.178;2024-02-04T03:07:48;12.00;92.10
8736;DHT22;4404;49.308;12.178;2024-02-04T03:09:52;12.00;92.30
8736;DHT22;4404;49.308;12.178;2024-02-04T03:11:53;12.00;92.30
8736;DHT22;4404;49.308;12.178;2024-02-04T03:13:56;12.00;92.30
8736;DHT22;4404;49.308;12.178;2024-02-04T03:15:58;12.00;92.30
8736;DHT22;4404;49.308;12.178;2024-02-04T03:18:00;12.10;92.40
8736;DHT22;4404;49.308;12.178;2024-02-04T03:20:03;12.00;92.40
8736;DHT22;4404;49.308;12.178;2024-02-04T03:22:06;12.00;92.40
8736;DHT22;4404;49.308;12.178;2024-02-04T03:26:10;12.00;92.10
8736;DHT22;4404;49.308;12.178;2024-02-04T03:28:12;12.00;92.40
8736;DHT22;4404;49.308;12.178;2024-02-04T03:30:16;12.00;92.40
8736;DHT22;4404;49.308;12.178;2024-02-04T03:32:18;12.00;92.50
8736;DHT22;4404;49.308;12.178;2024-02-04T03:34:20;12.00;92.50
8736;DHT22;4404;49.308;12.178;2024-02-04T03:36:23;12.00;92.50
8736;DHT22;4404;49.308;12.178;2024-02-04T03:38:25;12.00;92.30
8736;DHT22;4404;49.308;12.178;2024-02-04T03:40:28;12.00;92.50
8736;DHT22;4404;49.308;12.178;2024-02-04T03:42:29;12.00;92.50
8736;DHT22;4404;49.308;12.178;2024-02-04T03:44:31;12.00;92.50
8736;DHT22;4404;49.308;12.178;2024-02-04T03:46:35;12.00;92.50
8736;DHT22;4404;49.308;12.178;2024-02-04T03:48:37;12.00;92.50
8736;DHT22;4404;49.308;12.178;2024-02-04T03:50:39;12.00;92.50
8736;DHT22;4404;49.308;12.178;2024-02-04T03:52:41;12.00;92.30
8736;DHT22;4404;49.308;12.178;2024-02-04T03:54:43;12.00;92.50
8736;DHT22;4404;49.308;12.178;2024-02-04T03:56:45;12.00;92.30
8736;DHT22;4404;49.308;12.178;2024-02-04T03:58:46;12.00;92.50
8736;DHT22;4404;49.308;12.178;2024-02-04T04:00:49;12.00;92.50
8736;DHT22;4404;49.308;12.178;2024-02-04T04:02:52;12.00;92.50
8736;DHT22;4404;49.308;12.178;2024-02-04T04:04:54;12.30;92.70
8736;DHT22;4404;49.308;12.178;2024-02-04T04:06:56;12.00;92.30
8736;DHT22;4404;49.308;12.178;2024-02-04T04:08:58;12.00;92.30
8736;DHT22;4404;49.308;12.178;2024-02-04T04:11:00;12.00;92.50
8736;DHT22;4404;49.308;12.178;2024-02-04T04:13:03;12.00;92.50
8736;DHT22;4404;49.308;12.178;2024-02-04T04:15:06;12.00;92.50
8736;DHT22;4404;49.308;12.178;2024-02-04T04:17:08;12.00;92.70
8736;DHT22;4404;49.308;12.178;2024-02-04T04:19:11;12.00;92.70
8736;DHT22;4404;49.308;12.178;2024-02-04T04:21:13;12.00;92.70
8736;DHT22;4404;49.308;12.178;2024-02-04T04:23:15;12.00;92.50
8736;DHT22;4404;49.308;12.178;2024-02-04T04:25:17;12.00;92.60
8736;DHT22;4404;49.308;12.178;2024-02-04T04:27:19;12.00;92.60
8736;DHT22;4404;49.308;12.178;2024-02-04T04:29:21;12.00;92.60
8736;DHT22;4404;49.308;12.178;2024-02-04T04:31:23;12.00;92.70
8736;DHT22;4404;49.308;12.178;2024-02-04T04:33:25;12.00;92.70
8736;DHT22;4404;49.308;12.178;2024-02-04T04:35:29;12.00;92.80
8736;DHT22;4404;49.308;12.178;2024-02-04T04:37:31;11.90;92.70
8736;DHT22;4404;49.308;12.178;2024-02-04T04:39:33;12.00;92.70
8736;DHT22;4404;49.308;12.178;2024-02-04T04:41:35;12.00;92.80
8736;DHT22;4404;49.308;12.178;2024-02-04T04:43:37;12.00;92.70
8736;DHT22;4404;49.308;12.178;2024-02-04T04:45:39;12.00;92.70
8736;DHT22;4404;49.308;12.178;2024-02-04T04:47:41;12.10;92.80
8736;DHT22;4404;49.308;12.178;2024-02-04T04:49:43;12.00;92.70
8736;DHT22;4404;49.308;12.178;2024-02-04T04:51:47;12.00;92.80
8736;DHT22;4404;49.308;12.178;2024-02-04T04:53:49;12.00;92.80
8736;DHT22;4404;49.308;12.178;2024-02-04T04:55:51;11.90;92.80
8736;DHT22;4404;49.308;12.178;2024-02-04T04:57:53;12.00;92.90
8736;DHT22;4404;49.308;12.178;2024-02-04T04:59:55;12.00;92.80
8736;DHT22;4404;49.308;12.178;2024-02-04T05:01:59;12.00;92.90
8736;DHT22;4404;49.308;12.178;2024-02-04T05:04:01;12.00;92.80
8736;DHT22;4404;49.308;12.178;2024-02-04T05:06:03;12.00;92.60
8736;DHT22;4404;49.308;12.178;2024-02-04T05:08:07;12.00;92.90
8736;DHT22;4404;49.308;12.178;2024-02-04T05:10:09;12.00;93.10
8736;DHT22;4404;49.308;12.178;2024-02-04T05:12:11;12.00;92.90
8736;DHT22;4404;49.308;12.178;2024-02-04T05:14:13;12.00;92.90
8736;DHT22;4404;49.308;12.178;2024-02-04T05:16:15;12.00;92.80
8736;DHT22;4404;49.308;12.178;2024-02-04T05:18:17;12.00;92.80
8736;DHT22;4404;49.308;12.178;2024-02-04T05:20:19;12.10;92.90
8736;DHT22;4404;49.308;12.178;2024-02-04T05:22:21;12.20;93.00
8736;DHT22;4404;49.308;12.178;2024-02-04T05:24:24;12.00;92.90
8736;DHT22;4404;49.308;12.178;2024-02-04T05:26:26;12.00;92.80
8736;DHT22;4404;49.308;12.178;2024-02-04T05:28:28;12.00;92.80
8736;DHT22;4404;49.308;12.178;2024-02-04T05:30:30;12.00;92.80
8736;DHT22;4404;49.308;12.178;2024-02-04T05:32:32;12.10;92.80
8736;DHT22;4404;49.308;12.178;2024-02-04T05:34:34;12.00;92.80
8736;DHT22;4404;49.308;12.178;2024-02-04T05:36:36;12.00;92.80
8736;DHT22;4404;49.308;12.178;2024-02-04T05:38:38;12.00;92.80
8736;DHT22;4404;49.308;12.178;2024-02-04T05:40:41;12.00;92.80
8736;DHT22;4404;49.308;12.178;2024-02-04T05:42:43;12.00;92.90
8736;DHT22;4404;49.308;12.178;2024-02-04T05:44:44;12.10;93.00
8736;DHT22;4404;49.308;12.178;2024-02-04T05:46:46;12.00;92.90
8736;DHT22;4404;49.308;12.178;2024-02-04T05:48:48;12.00;92.90
8736;DHT22;4404;49.308;12.178;2024-02-04T05:50:50;12.00;92.90
8736;DHT22;4404;49.308;12.178;2024-02-04T05:52:52;12.00;92.80
8736;DHT22;4404;49.308;12.178;2024-02-04T05:54:54;11.90;92.80
8736;DHT22;4404;49.308;12.178;2024-02-04T05:56:57;12.10;92.90
8736;DHT22;4404;49.308;12.178;2024-02-04T05:58:59;12.00;92.80
8736;DHT22;4404;49.308;12.178;2024-02-04T06:01:00;12.20;92.90
8736;DHT22;4404;49.308;12.178;2024-02-04T06:03:02;12.00;92.80
8736;DHT22;4404;49.308;12.178;2024-02-04T06:05:05;12.00;92.70
8736;DHT22;4404;49.308;12.178;2024-02-04T06:07:07;12.00;92.80
8736;DHT22;4404;49.308;12.178;2024-02-04T06:09:08;12.00;92.70
8736;DHT22;4404;49.308;12.178;2024-02-04T06:11:11;12.00;92.70
8736;DHT22;4404;49.308;12.178;2024-02-04T06:13:14;12.00;92.70
8736;DHT22;4404;49.308;12.178;2024-02-04T06:15:16;12.00;92.80
8736;DHT22;4404;49.308;12.178;2024-02-04T06:17:21;12.00;92.70
8736;DHT22;4404;49.308;12.178;2024-02-04T06:19:23;12.00;92.70
8736;DHT22;4404;49.308;12.178;2024-02-04T06:21:25;12.00;92.70
8736;DHT22;4404;49.308;12.178;2024-02-04T06:23:27;12.00;92.70
8736;DHT22;4404;49.308;12.178;2024-02-04T06:25:28;12.00;92.80
8736;DHT22;4404;49.308;12.178;2024-02-04T06:27:30;12.00;92.70
8736;DHT22;4404;49.308;12.178;2024-02-04T06:29:33;12.00;92.70
8736;DHT22;4404;49.308;12.178;2024-02-04T06:31:35;12.00;92.70
8736;DHT22;4404;49.308;12.178;2024-02-04T06:33:36;12.00;92.70
8736;DHT22;4404;49.308;12.178;2024-02-04T06:35:38;12.00;92.70
8736;DHT22;4404;49.308;12.178;2024-02-04T06:37:41;12.00;92.70
8736;DHT22;4404;49.308;12.178;2024-02-04T06:39:43;12.00;92.80
8736;DHT22;4404;49.308;12.178;2024-02-04T06:41:46;12.00;92.80
8736;DHT22;4404;49.308;12.178;2024-02-04T06:43:48;12.00;92.70
8736;DHT22;4404;49.308;12.178;2024-02-04T06:45:51;12.00;92.70
8736;DHT22;4404;49.308;12.178;2024-02-04T06:47:53;12.00;92.70
8736;DHT22;4404;49.308;12.178;2024-02-04T06:49:55;12.00;92.60
8736;DHT22;4404;49.308;12.178;2024-02-04T06:51:57;12.10;92.70
8736;DHT22;4404;49.308;12.178;2024-02-04T06:53:59;12.00;92.60
8736;DHT22;4404;49.308;12.178;2024-02-04T06:56:02;12.10;92.60
8736;DHT22;4404;49.308;12.178;2024-02-04T06:58:04;12.00;92.50
8736;DHT22;4404;49.308;12.178;2024-02-04T07:00:07;12.00;92.50
8736;DHT22;4404;49.308;12.178;2024-02-04T07:02:10;12.00;92.50
8736;DHT22;4404;49.308;12.178;2024-02-04T07:04:11;12.10;92.70
8736;DHT22;4404;49.308;12.178;2024-02-04T07:06:13;12.00;93.00
8736;DHT22;4404;49.308;12.178;2024-02-04T07:08:15;12.10;92.70
8736;DHT22;4404;49.308;12.178;2024-02-04T07:10:18;12.10;92.70
8736;DHT22;4404;49.308;12.178;2024-02-04T07:12:19;12.00;92.70
8736;DHT22;4404;49.308;12.178;2024-02-04T07:14:22;12.00;92.60
8736;DHT22;4404;49.308;12.178;2024-02-04T07:16:25;12.00;92.60
8736;DHT22;4404;49.308;12.178;2024-02-04T07:18:28;12.00;92.60
8736;DHT22;4404;49.308;12.178;2024-02-04T07:20:31;12.20;92.60
8736;DHT22;4404;49.308;12.178;2024-02-04T07:22:33;12.10;92.60
8736;DHT22;4404;49.308;12.178;2024-02-04T07:24:36;12.10;92.70
8736;DHT22;4404;49.308;12.178;2024-02-04T07:26:38;12.10;92.60
8736;DHT22;4404;49.308;12.178;2024-02-04T07:28:40;12.10;92.60
8736;DHT22;4404;49.308;12.178;2024-02-04T07:30:44;12.30;92.70
8736;DHT22;4404;49.308;12.178;2024-02-04T07:32:48;12.10;92.60
8736;DHT22;4404;49.308;12.178;2024-02-04T07:35:07;12.00;92.60
8736;DHT22;4404;49.308;12.178;2024-02-04T07:37:10;12.10;92.60
8736;DHT22;4404;49.308;12.178;2024-02-04T07:39:12;11.50;92.30
8736;DHT22;4404;49.308;12.178;2024-02-04T07:41:16;12.10;92.50
8736;DHT22;4404;49.308;12.178;2024-02-04T07:43:19;12.10;92.60
8736;DHT22;4404;49.308;12.178;2024-02-04T07:45:21;12.10;92.50
8736;DHT22;4404;49.308;12.178;2024-02-04T07:47:23;12.10;92.60
8736;DHT22;4404;49.308;12.178;2024-02-04T07:49:26;12.40;92.80
8736;DHT22;4404;49.308;12.178;2024-02-04T07:51:29;12.10;92.60
8736;DHT22;4404;49.308;12.178;2024-02-04T07:53:32;12.10;92.60
8736;DHT22;4404;49.308;12.178;2024-02-04T07:55:34;12.10;92.60
8736;DHT22;4404;49.308;12.178;2024-02-04T07:57:37;12.10;92.60
8736;DHT22;4404;49.308;12.178;2024-02-04T07:59:38;12.20;92.60
8736;DHT22;4404;49.308;12.178;2024-02-04T08:01:41;12.00;92.60
8736;DHT22;4404;49.308;12.178;2024-02-04T08:03:43;12.10;92.60
8736;DHT22;4404;49.308;12.178;2024-02-04T08:05:47;12.10;92.70
8736;DHT22;4404;49.308;12.178;2024-02-04T08:07:50;12.10;92.70
8736;DHT22;4404;49.308;12.178;2024-02-04T08:09:52;12.20;92.70
8736;DHT22;4404;49.308;12.178;2024-02-04T08:11:53;12.20;92.70
8736;DHT22;4404;49.308;12.178;2024-02-04T08:13:55;12.20;92.60
8736;DHT22;4404;49.308;12.178;2024-02-04T08:15:57;12.20;92.60
8736;DHT22;4404;49.308;12.178;2024-02-04T08:18:00;12.20;92.50
8736;DHT22;4404;49.308;12.178;2024-02-04T08:20:02;12.30;92.50
8736;DHT22;4404;49.308;12.178;2024-02-04T08:22:05;12.30;92.40
8736;DHT22;4404;49.308;12.178;2024-02-04T08:24:08;12.30;92.40
8736;DHT22;4404;49.308;12.178;2024-02-04T08:26:10;12.30;92.30
8736;DHT22;4404;49.308;12.178;2024-02-04T08:28:13;12.30;92.40
8736;DHT22;4404;49.308;12.178;2024-02-04T08:30:15;12.40;92.50
8736;DHT22;4404;49.308;12.178;2024-02-04T08:32:19;12.40;92.40
8736;DHT22;4404;49.308;12.178;2024-02-04T08:34:20;12.40;92.20
8736;DHT22;4404;49.308;12.178;2024-02-04T08:36:24;12.40;92.40
8736;DHT22;4404;49.308;12.178;2024-02-04T08:38:25;12.40;92.30
8736;DHT22;4404;49.308;12.178;2024-02-04T08:40:29;12.40;92.30
8736;DHT22;4404;49.308;12.178;2024-02-04T08:42:31;12.40;92.30
8736;DHT22;4404;49.308;12.178;2024-02-04T08:44:33;12.40;92.30
8736;DHT22;4404;49.308;12.178;2024-02-04T08:46:35;12.40;92.30
8736;DHT22;4404;49.308;12.178;2024-02-04T08:48:37;12.40;92.30
8736;DHT22;4404;49.308;12.178;2024-02-04T08:50:39;12.50;92.50
8736;DHT22;4404;49.308;12.178;2024-02-04T08:52:40;12.50;92.50
8736;DHT22;4404;49.308;12.178;2024-02-04T08:54:42;12.50;92.40
8736;DHT22;4404;49.308;12.178;2024-02-04T08:56:45;12.50;92.50
8736;DHT22;4404;49.308;12.178;2024-02-04T08:58:47;12.50;92.50
8736;DHT22;4404;49.308;12.178;2024-02-04T09:00:49;12.50;92.40
8736;DHT22;4404;49.308;12.178;2024-02-04T09:02:51;12.50;92.50
8736;DHT22;4404;49.308;12.178;2024-02-04T09:04:53;12.50;92.40
8736;DHT22;4404;49.308;12.178;2024-02-04T09:06:55;12.50;92.70
8736;DHT22;4404;49.308;12.178;2024-02-04T09:08:56;12.50;92.60
8736;DHT22;4404;49.308;12.178;2024-02-04T09:10:58;12.50;92.50
8736;DHT22;4404;49.308;12.178;2024-02-04T09:13:01;12.50;92.40
8736;DHT22;4404;49.308;12.178;2024-02-04T09:15:04;12.50;92.40
8736;DHT22;4404;49.308;12.178;2024-02-04T09:17:07;12.50;92.70
8736;DHT22;4404;49.308;12.178;2024-02-04T09:19:10;12.50;92.50
8736;DHT22;4404;49.308;12.178;2024-02-04T09:21:12;12.60;92.50
8736;DHT22;4404;49.308;12.178;2024-02-04T09:23:14;12.50;92.40
8736;DHT22;4404;49.308;12.178;2024-02-04T09:25:16;12.50;92.40
8736;DHT22;4404;49.308;12.178;2024-02-04T09:27:18;12.50;92.50
8736;DHT22;4404;49.308;12.178;2024-02-04T09:29:22;12.50;92.70
8736;DHT22;4404;49.308;12.178;2024-02-04T09:31:23;12.50;92.50
8736;DHT22;4404;49.308;12.178;2024-02-04T09:33:25;12.50;92.60
8736;DHT22;4404;49.308;12.178;2024-02-04T09:35:27;12.50;92.40
8736;DHT22;4404;49.308;12.178;2024-02-04T09:37:29;12.50;92.50
8736;DHT22;4404;49.308;12.178;2024-02-04T09:39:31;12.50;92.50
8736;DHT22;4404;49.308;12.178;2024-02-04T09:41:33;12.50;92.50
8736;DHT22;4404;49.308;12.178;2024-02-04T09:43:36;12.50;92.50
8736;DHT22;4404;49.308;12.178;2024-02-04T09:45:39;12.50;92.50
8736;DHT22;4404;49.308;12.178;2024-02-04T09:47:42;12.50;92.60
8736;DHT22;4404;49.308;12.178;2024-02-04T09:49:46;12.50;92.70
8736;DHT22;4404;49.308;12.178;2024-02-04T09:51:49;12.50;92.50
8736;DHT22;4404;49.308;12.178;2024-02-04T09:53:52;12.50;92.50
8736;DHT22;4404;49.308;12.178;2024-02-04T09:55:55;12.50;92.70
8736;DHT22;4404;49.308;12.178;2024-02-04T09:57:57;12.50;92.80
8736;DHT22;4404;49.308;12.178;2024-02-04T09:59:59;12.60;92.80
8736;DHT22;4404;49.308;12.178;2024-02-04T10:02:03;12.50;92.60
8736;DHT22;4404;49.308;12.178;2024-02-04T10:04:06;12.50;92.70
8736;DHT22;4404;49.308;12.178;2024-02-04T10:06:08;12.50;93.00
8736;DHT22;4404;49.308;12.178;2024-02-04T10:08:09;12.40;92.70
8736;DHT22;4404;49.308;12.178;2024-02-04T10:10:11;12.50;92.70
8736;DHT22;4404;49.308;12.178;2024-02-04T10:12:14;12.50;92.70
8736;DHT22;4404;49.308;12.178;2024-02-04T10:14:16;12.50;92.60
8736;DHT22;4404;49.308;12.178;2024-02-04T10:16:20;12.60;92.70
8736;DHT22;4404;49.308;12.178;2024-02-04T10:18:24;12.50;92.50
8736;DHT22;4404;49.308;12.178;2024-02-04T10:20:26;12.60;92.50
8736;DHT22;4404;49.308;12.178;2024-02-04T10:22:28;12.60;92.50
8736;DHT22;4404;49.308;12.178;2024-02-04T10:24:30;12.60;92.60
8736;DHT22;4404;49.308;12.178;2024-02-04T10:26:32;12.60;92.70
8736;DHT22;4404;49.308;12.178;2024-02-04T10:28:36;12.50;92.60
8736;DHT22;4404;49.308;12.178;2024-02-04T10:30:38;12.50;92.70
8736;DHT22;4404;49.308;12.178;2024-02-04T10:32:41;12.60;92.60
8736;DHT22;4404;49.308;12.178;2024-02-04T10:34:44;12.60;93.10
8736;DHT22;4404;49.308;12.178;2024-02-04T10:36:46;12.60;92.70
8736;DHT22;4404;49.308;12.178;2024-02-04T10:38:48;12.60;92.70
8736;DHT22;4404;49.308;12.178;2024-02-04T10:40:53;12.60;92.70
8736;DHT22;4404;49.308;12.178;2024-02-04T10:43:00;12.60;92.70
8736;DHT22;4404;49.308;12.178;2024-02-04T10:45:08;12.60;92.70
8736;DHT22;4404;49.308;12.178;2024-02-04T10:47:10;12.60;92.80
8736;DHT22;4404;49.308;12.178;2024-02-04T10:49:19;12.60;92.70
8736;DHT22;4404;49.308;12.178;2024-02-04T10:51:25;12.60;92.70
8736;DHT22;4404;49.308;12.178;2024-02-04T10:53:27;12.60;92.70
8736;DHT22;4404;49.308;12.178;2024-02-04T10:55:30;12.60;92.70
8736;DHT22;4404;49.308;12.178;2024-02-04T10:57:34;12.60;92.70
8736;DHT22;4404;49.308;12.178;2024-02-04T10:59:35;12.60;92.70
8736;DHT22;4404;49.308;12.178;2024-02-04T11:01:38;12.60;92.70
8736;DHT22;4404;49.308;12.178;2024-02-04T11:03:41;12.60;92.70
8736;DHT22;4404;49.308;12.178;2024-02-04T11:05:42;12.60;92.60
8736;DHT22;4404;49.308;12.178;2024-02-04T11:07:46;12.60;92.60
8736;DHT22;4404;49.308;12.178;2024-02-04T11:09:50;12.70;92.70
8736;DHT22;4404;49.308;12.178;2024-02-04T11:11:54;12.60;92.60
8736;DHT22;4404;49.308;12.178;2024-02-04T11:14:00;12.50;92.50
8736;DHT22;4404;49.308;12.178;2024-02-04T11:16:07;12.60;92.70
8736;DHT22;4404;49.308;12.178;2024-02-04T11:18:36;12.60;92.80
8736;DHT22;4404;49.308;12.178;2024-02-04T11:23:44;12.60;92.80
8736;DHT22;4404;49.308;12.178;2024-02-04T11:25:54;12.60;92.80
8736;DHT22;4404;49.308;12.178;2024-02-04T11:27:58;12.50;92.70
8736;DHT22;4404;49.308;12.178;2024-02-04T11:30:01;12.60;92.70
8736;DHT22;4404;49.308;12.178;2024-02-04T11:32:05;12.60;92.60
8736;DHT22;4404;49.308;12.178;2024-02-04T11:34:16;12.60;92.60
8736;DHT22;4404;49.308;12.178;2024-02-04T11:36:28;12.60;92.80
8736;DHT22;4404;49.308;12.178;2024-02-04T11:38:31;12.60;93.10
8736;DHT22;4404;49.308;12.178;2024-02-04T11:40:37;12.50;92.60
8736;DHT22;4404;49.308;12.178;2024-02-04T11:42:40;12.60;92.80
8736;DHT22;4404;49.308;12.178;2024-02-04T11:44:41;12.60;92.80
8736;DHT22;4404;49.308;12.178;2024-02-04T11:46:46;12.60;92.80
8736;DHT22;4404;49.308;12.178;2024-02-04T11:48:52;12.60;92.80
8736;DHT22;4404;49.308;12.178;2024-02-04T11:50:55;12.60;92.80
8736;DHT22;4404;49.308;12.178;2024-02-04T11:53:09;12.60;92.80
8736;DHT22;4404;49.308;12.178;2024-02-04T11:55:14;12.60;92.80
8736;DHT22;4404;49.308;12.178;2024-02-04T11:57:18;12.60;92.80
8736;DHT22;4404;49.308;12.178;2024-02-04T11:59:21;12.60;92.80
8736;DHT22;4404;49.308;12.178;2024-02-04T12:01:25;12.60;92.80
8736;DHT22;4404;49.308;12.178;2024-02-04T12:03:30;12.50;93.30
8736;DHT22;4404;49.308;12.178;2024-02-04T12:05:34;12.60;93.30
8736;DHT22;4404;49.308;12.178;2024-02-04T12:07:37;12.50;93.40
8736;DHT22;4404;49.308;12.178;2024-02-04T12:09:42;12.50;93.30
8736;DHT22;4404;49.308;12.178;2024-02-04T12:11:47;12.50;93.20
8736;DHT22;4404;49.308;12.178;2024-02-04T12:13:51;12.50;93.10
8736;DHT22;4404;49.308;12.178;2024-02-04T12:15:54;12.50;93.00
8736;DHT22;4404;49.308;12.178;2024-02-04T12:18:05;12.50;93.10
8736;DHT22;4404;49.308;12.178;2024-02-04T12:20:08;12.60;93.10
8736;DHT22;4404;49.308;12.178;2024-02-04T12:22:11;12.60;93.00
8736;DHT22;4404;49.308;12.178;2024-02-04T12:24:14;12.60;92.90
8736;DHT22;4404;49.308;12.178;2024-02-04T12:26:16;12.60;93.00
8736;DHT22;4404;49.308;12.178;2024-02-04T12:28:19;12.60;92.90
8736;DHT22;4404;49.308;12.178;2024-02-04T12:30:22;12.60;92.90
8736;DHT22;4404;49.308;12.178;2024-02-04T12:32:25;12.60;92.90
8736;DHT22;4404;49.308;12.178;2024-02-04T12:34:27;12.50;92.80
8736;DHT22;4404;49.308;12.178;2024-02-04T12:36:31;12.70;92.90
8736;DHT22;4404;49.308;12.178;2024-02-04T12:38:33;12.70;93.00
8736;DHT22;4404;49.308;12.178;2024-02-04T12:40:36;12.70;92.80
8736;DHT22;4404;49.308;12.178;2024-02-04T12:42:38;12.60;92.80
8736;DHT22;4404;49.308;12.178;2024-02-04T12:44:40;12.70;92.80
8736;DHT22;4404;49.308;12.178;2024-02-04T12:46:44;12.60;92.80
8736;DHT22;4404;49.308;12.178;2024-02-04T12:48:50;12.70;92.80
8736;DHT22;4404;49.308;12.178;2024-02-04T12:50:53;12.60;92.80
8736;DHT22;4404;49.308;12.178;2024-02-04T12:53:03;12.60;92.80
8736;DHT22;4404;49.308;12.178;2024-02-04T12:55:06;12.60;92.80
8736;DHT22;4404;49.308;12.178;2024-02-04T12:57:07;12.60;92.80
8736;DHT22;4404;49.308;12.178;2024-02-04T12:59:12;12.60;92.80
8736;DHT22;4404;49.308;12.178;2024-02-04T13:01:25;12.60;92.80
8736;DHT22;4404;49.308;12.178;2024-02-04T13:03:28;12.60;92.70
8736;DHT22;4404;49.308;12.178;2024-02-04T13:05:30;12.70;92.90
8736;DHT22;4404;49.308;12.178;2024-02-04T13:07:32;12.70;92.80
8736;DHT22;4404;49.308;12.178;2024-02-04T13:09:35;12.70;92.80
8736;DHT22;4404;49.308;12.178;2024-02-04T13:11:36;12.70;92.70
8736;DHT22;4404;49.308;12.178;2024-02-04T13:13:38;12.70;92.70
8736;DHT22;4404;49.308;12.178;2024-02-04T13:15:41;12.70;92.70
8736;DHT22;4404;49.308;12.178;2024-02-04T13:17:44;12.70;92.70
8736;DHT22;4404;49.308;12.178;2024-02-04T13:19:48;12.70;92.70